Downsview Airport

METAR CYTZ TAF CYTZ
-20 °C
°C
-
°C
30m
Idade
04:30:28
LT
03:30
UTC
0 ft

1.000

2.000

3.000

4.000

5.000

VFR
<?= Yii::t('app', 'Wind direction') ?> <?= Yii::t('app', 'of'); ?>
330°
07:30
Nascer do sol
59%
Humidade
Tesoura de Vento
Fechado/Neve
Alcance visual RWY
Condição RWY
Vert. visibilidade
Min. visibilidade
CAVOK
Tendência
Correcção
Relatório especial
30,55 inHg
QNH
METAR CYTZ 040300Z AUTO 33006KT 310V020 9SM CLR M20/M26 A3055 RMK SLP356
Claro
1 kt
1 kt
22:00
VFR
8 kt
23:00
VFR
8 kt
00:00
VFR
8 kt
01:00
VFR
8 kt
02:00
VFR
8 kt
03:00
VFR
8 kt
04:00
VFR
8 kt
9 mi
Visibilidade
Nenhum
Tecto
6 kt
Vento
metar-taf.com/CYZD

Metar-Taf.com

Decodificador visual

Nós e terceiros acompanhamos seu comportamento na internet em nosso site com cookies. Se você continuar, nós assumimos que você concorda com nosso política de cookies.